Terminal Aerodrome Forecast
Issued by NWS

Home | Current Version | Previous Version | Graphics & Text | Print | Product List | Glossary On
Versions: 1 2 3 4 5 6 7 8 9 10 11 12 13 14 15 16 17 18 19 20 21 22 23 24 25 26 27
712
FTUS43 KTOP 241126
TAFFOE
TAF
KFOE 241126Z 2412/2512 11010KT 6SM BR SCT150 WS020/15040KT
     FM241300 13012KT P6SM SCT150
     FM241500 15016G23KT P6SM SCT100
     FM242000 20016G24KT P6SM SCT150
     FM250100 26011KT P6SM SCT150
     FM250600 28015G23KT P6SM BKN050=

USA.gov is the U.S. government's official web portal to all federal, state and local government web resources and services.